Time;durP1;ratioP1;P1;durP2;ratioP2;P2;SDS_P1;SDS_P2;PMS_P1;PMS_P2;Temp;Humidity;BMP_temperature;BMP_pressure;BME280_temperature;BME280_humidity;BME280_pressure;Samples;Min_cycle;Max_cycle;Signal;HPM_P1;HPM_P2
2022/09/15 00:03:40;;;;;;;2.53;2.33;;;;;;;10.20;91.18;99227.72;10625929;27;20554;-71
2022/09/15 00:09:02;;;;;;;2.70;2.50;;;;;;;10.22;90.82;99242.75;10623903;27;20047;-71
2022/09/15 00:14:06;;;;;;;4.35;2.58;;;;;;;10.24;90.70;99229.56;10626738;27;20040;-72
2022/09/15 00:19:08;;;;;;;3.17;2.50;;;;;;;10.29;91.46;99227.81;10626523;27;20042;-72
2022/09/15 00:24:11;;;;;;;3.40;2.78;;;;;;;10.26;90.84;99221.03;10607932;27;20043;-70
2022/09/15 00:29:13;;;;;;;5.03;2.22;;;;;;;10.25;90.87;99222.16;10621915;27;20266;-70
2022/09/15 00:34:15;;;;;;;2.95;2.38;;;;;;;10.26;91.52;99212.81;10631491;27;20045;-71
2022/09/15 00:39:17;;;;;;;5.05;2.83;;;;;;;10.25;90.91;99211.19;10628814;27;20031;-71
2022/09/15 00:44:22;;;;;;;3.35;2.65;;;;;;;10.29;91.31;99209.44;10623152;27;20413;-71
2022/09/15 00:49:27;;;;;;;4.15;2.78;;;;;;;10.31;91.21;99211.84;10623872;27;20047;-70
2022/09/15 00:54:30;;;;;;;4.88;2.90;;;;;;;10.31;91.90;99204.44;10624668;27;20047;-70
2022/09/15 00:59:34;;;;;;;3.00;2.53;;;;;;;10.32;91.51;99199.78;10631500;27;20066;-71
2022/09/15 01:04:36;;;;;;;3.90;2.50;;;;;;;10.36;91.12;99190.59;10635442;27;20035;-71
2022/09/15 01:09:51;;;;;;;3.72;2.72;;;;;;;10.31;91.64;99192.66;10647915;27;20054;-70
2022/09/15 01:14:53;;;;;;;4.15;2.80;;;;;;;10.32;91.05;99180.56;10621106;27;20035;-71
2022/09/15 01:20:14;;;;;;;5.78;2.90;;;;;;;10.33;91.79;99177.50;10622046;27;20062;-71
2022/09/15 01:25:29;;;;;;;3.85;2.90;;;;;;;10.33;91.25;99169.28;10624753;27;20043;-71
2022/09/15 01:30:36;;;;;;;4.35;3.00;;;;;;;10.31;91.98;99173.47;10620462;27;20080;-71
2022/09/15 01:35:48;;;;;;;;;;;;;;;10.27;92.10;99182.34;10612822;27;20508;-71
2022/09/15 01:40:55;;;;;;;4.10;2.95;;;;;;;10.22;91.92;99171.47;10613124;27;20385;-71
2022/09/15 01:45:58;;;;;;;4.80;2.58;;;;;;;10.18;92.03;99165.00;10605875;27;20039;-71
2022/09/15 01:51:02;;;;;;;4.28;2.70;;;;;;;10.19;92.31;99171.28;10625295;27;20062;-71
2022/09/15 01:56:09;;;;;;;4.72;2.88;;;;;;;10.19;92.24;99171.28;10622918;27;20051;-71
2022/09/15 02:01:26;;;;;;;2.88;2.58;;;;;;;10.15;91.74;99154.66;10620491;27;20051;-71
2022/09/15 02:06:39;;;;;;;3.67;2.40;;;;;;;10.15;91.76;99157.41;10625877;27;20031;-71
2022/09/15 02:11:53;;;;;;;4.45;2.22;;;;;;;10.19;91.98;99149.34;10629977;27;20031;-71
2022/09/15 02:16:55;;;;;;;1.67;1.58;;;;;;;10.18;92.25;99145.81;10613719;27;20054;-71
2022/09/15 02:22:16;;;;;;;3.15;2.40;;;;;;;10.20;91.36;99145.47;10614454;27;20793;-70
2022/09/15 02:27:23;;;;;;;5.78;2.80;;;;;;;10.18;91.61;99137.56;10616095;27;20059;-71
2022/09/15 02:32:26;;;;;;;3.87;2.80;;;;;;;10.18;91.68;99132.09;10616437;27;20509;-71
2022/09/15 02:37:29;;;;;;;3.65;2.50;;;;;;;10.20;91.75;99134.53;10616193;27;20062;-70
2022/09/15 02:42:32;;;;;;;4.53;3.20;;;;;;;10.16;92.06;99128.06;10633735;27;20054;-70
2022/09/15 02:47:34;;;;;;;3.38;2.75;;;;;;;10.13;91.81;99121.28;10599614;27;20519;-71
2022/09/15 02:52:36;;;;;;;3.03;2.70;;;;;;;10.10;92.30;99119.16;10629640;27;20040;-71
2022/09/15 02:57:39;;;;;;;3.30;2.35;;;;;;;10.14;92.36;99113.84;10626671;27;20071;-70
2022/09/15 03:02:49;;;;;;;4.38;2.97;;;;;;;10.09;92.36;99117.56;10624926;27;20501;-71
2022/09/15 03:07:51;;;;;;;3.65;2.50;;;;;;;10.09;92.67;99114.00;10635677;27;20587;-71
2022/09/15 03:12:54;;;;;;;3.47;2.38;;;;;;;10.09;93.28;99116.75;10626687;27;20043;-71
2022/09/15 03:17:56;;;;;;;4.00;2.65;;;;;;;10.13;93.28;99115.00;10623825;27;20054;-71
2022/09/15 03:22:58;;;;;;;4.03;2.80;;;;;;;10.12;93.47;99107.88;10612879;27;20039;-71
2022/09/15 03:28:00;;;;;;;4.38;3.00;;;;;;;10.08;93.28;99096.75;10610969;27;20047;-71
2022/09/15 03:33:03;;;;;;;4.18;2.78;;;;;;;10.05;93.52;99085.59;10627685;27;20553;-71
2022/09/15 03:38:05;;;;;;;3.33;2.65;;;;;;;10.08;93.08;99090.47;10625672;27;20147;-71
2022/09/15 03:43:08;;;;;;;2.70;2.38;;;;;;;10.08;93.67;99076.75;10632135;27;20059;-71
2022/09/15 03:48:10;;;;;;;4.72;3.10;;;;;;;10.12;93.01;99066.78;10646793;27;20031;-70
2022/09/15 03:53:13;;;;;;;4.20;3.10;;;;;;;10.12;94.19;99067.59;10639777;27;20047;-70
2022/09/15 03:58:16;;;;;;;3.47;2.90;;;;;;;10.10;93.59;99055.31;10657985;27;20540;-70
2022/09/15 04:03:18;;;;;;;6.68;2.70;;;;;;;10.08;94.23;99055.66;10657904;27;20421;-70
2022/09/15 04:08:21;;;;;;;2.25;1.35;;;;;;;10.07;93.31;99047.75;10660419;27;20043;-70
2022/09/15 04:13:23;;;;;;;4.65;2.88;;;;;;;10.04;94.41;99048.34;10656515;27;20031;-71
2022/09/15 04:18:27;;;;;;;1.38;1.15;;;;;;;10.04;93.72;99051.09;10654030;27;20382;-71
2022/09/15 04:23:29;;;;;;;3.88;2.95;;;;;;;10.03;94.04;99050.28;10649549;27;20035;-72
2022/09/15 04:28:33;;;;;;;5.90;2.97;;;;;;;10.02;94.34;99042.38;10654505;27;20035;-70
2022/09/15 04:33:37;;;;;;;3.75;3.13;;;;;;;10.07;94.55;99048.56;10653772;27;20394;-70
2022/09/15 04:38:39;;;;;;;5.15;3.42;;;;;;;10.09;95.34;99040.00;10653883;27;20050;-70
2022/09/15 04:43:42;;;;;;;5.88;3.05;;;;;;;10.18;95.30;99036.16;10656823;27;20050;-72
2022/09/15 04:48:45;;;;;;;4.28;3.47;;;;;;;10.30;94.38;99037.53;10653405;27;20035;-71
2022/09/15 04:53:47;;;;;;;6.03;3.53;;;;;;;10.30;94.74;99035.59;10655737;27;20069;-72
2022/09/15 04:58:57;;;;;;;4.32;3.47;;;;;;;10.34;95.23;99033.81;10655670;27;20047;-74
2022/09/15 05:04:02;;;;;;;4.72;3.78;;;;;;;10.38;94.76;99020.28;10655050;27;20039;-70
2022/09/15 05:09:06;;;;;;;4.70;3.15;;;;;;;10.41;94.73;99025.94;10614201;27;20046;-71
2022/09/15 05:14:09;;;;;;;7.75;3.92;;;;;;;10.49;94.31;99025.16;10626096;27;20058;-72
2022/09/15 05:19:11;;;;;;;6.70;3.30;;;;;;;10.45;94.22;99017.88;10654177;27;20583;-71
2022/09/15 05:24:14;;;;;;;5.10;3.42;;;;;;;10.42;93.93;99027.56;10655120;27;20051;-71
2022/09/15 05:29:16;;;;;;;5.82;3.30;;;;;;;10.44;93.68;99017.06;10654649;27;20090;-72
2022/09/15 05:34:18;;;;;;;5.32;3.30;;;;;;;10.42;93.75;99026.75;10635204;27;20054;-72
2022/09/15 05:39:20;;;;;;;4.43;3.15;;;;;;;10.41;93.09;99025.94;10654187;27;20367;-72
2022/09/15 05:44:23;;;;;;;4.38;3.65;;;;;;;10.44;93.10;99013.53;10654197;27;20043;-71
2022/09/15 05:49:25;;;;;;;5.45;3.35;;;;;;;10.43;93.21;99023.69;10636289;27;20448;-72
2022/09/15 05:54:27;;;;;;;5.18;3.60;;;;;;;10.47;93.79;99019.19;10632678;27;20043;-72
2022/09/15 05:59:29;;;;;;;4.28;3.38;;;;;;;10.48;93.56;99022.72;10635307;27;20401;-72
2022/09/15 06:04:33;;;;;;;4.43;3.20;;;;;;;10.50;94.21;99017.72;10653488;27;20559;-72
2022/09/15 06:09:41;;;;;;;4.35;3.58;;;;;;;10.49;94.58;99014.19;10653878;28;20541;-72
2022/09/15 06:14:44;;;;;;;4.38;3.00;;;;;;;10.48;94.33;99018.03;10651406;28;20053;-71
2022/09/15 06:19:47;;;;;;;4.38;2.83;;;;;;;10.45;94.62;99013.22;10653222;28;20051;-72
2022/09/15 06:24:49;;;;;;;4.38;3.28;;;;;;;10.46;94.66;99017.56;10653567;28;20031;-72
2022/09/15 06:29:51;;;;;;;5.85;3.63;;;;;;;10.45;94.66;99010.47;10617584;28;20528;-72
2022/09/15 06:34:53;;;;;;;6.03;3.88;;;;;;;10.47;95.00;99012.88;10635944;28;20151;-72
2022/09/15 06:39:55;;;;;;;5.20;3.47;;;;;;;10.45;95.40;99015.16;10652486;28;20051;-72
2022/09/15 06:44:58;;;;;;;4.50;3.65;;;;;;;10.40;96.24;99009.78;10653287;28;20077;-72
2022/09/15 06:50:00;;;;;;;7.03;3.50;;;;;;;10.43;95.85;99015.47;10653294;28;20528;-71
2022/09/15 06:55:02;;;;;;;5.85;3.88;;;;;;;10.41;96.54;99001.28;10656576;27;20042;-71
2022/09/15 07:00:06;;;;;;;6.72;3.85;;;;;;;10.41;96.90;99008.66;10658650;27;20050;-72
2022/09/15 07:05:09;;;;;;;4.70;3.00;;;;;;;10.43;96.27;99006.44;10636382;27;20043;-71
2022/09/15 07:10:11;;;;;;;5.32;3.65;;;;;;;10.46;96.66;99005.78;10658781;27;20050;-71
2022/09/15 07:15:14;;;;;;;5.55;3.22;;;;;;;10.51;96.78;98989.97;10659992;27;20043;-71
2022/09/15 07:20:16;;;;;;;5.72;3.72;;;;;;;10.53;96.14;99006.91;10642054;27;20042;-71
2022/09/15 07:25:18;;;;;;;5.35;2.83;;;;;;;10.59;96.40;99004.84;10643532;27;20048;-71
2022/09/15 07:30:20;;;;;;;4.72;3.20;;;;;;;10.62;96.01;99003.38;10634437;27;20050;-71
2022/09/15 07:35:23;;;;;;;4.15;2.80;;;;;;;10.66;96.51;99001.63;10659867;27;20417;-71
2022/09/15 07:40:26;;;;;;;7.40;3.00;;;;;;;10.67;96.07;98987.56;10641274;27;20050;-71
2022/09/15 07:45:28;;;;;;;3.17;2.50;;;;;;;10.71;95.15;98982.25;10659401;27;20035;-71
2022/09/15 07:50:30;;;;;;;3.33;2.65;;;;;;;10.76;95.51;98979.34;10658654;27;20054;-71
2022/09/15 07:55:32;;;;;;;2.75;2.30;;;;;;;10.82;95.07;98970.63;10659201;27;20046;-71
2022/09/15 08:00:36;;;;;;;3.58;2.60;;;;;;;10.79;95.15;98978.72;10657866;27;20054;-71
2022/09/15 08:05:38;;;;;;;4.13;2.40;;;;;;;10.84;94.37;98973.84;10657787;27;20039;-71
2022/09/15 08:10:41;;;;;;;5.15;2.65;;;;;;;10.91;94.48;98978.84;10657794;27;20593;-71
2022/09/15 08:15:43;;;;;;;2.60;2.40;;;;;;;10.97;95.13;98971.28;10657071;27;20410;-71
2022/09/15 08:20:46;;;;;;;2.00;1.60;;;;;;;11.01;94.52;98975.78;10657805;27;20039;-72
2022/09/15 08:25:50;;;;;;;3.17;1.80;;;;;;;11.10;94.06;98976.56;10657464;27;20042;-72
2022/09/15 08:31:00;;;;;;;5.05;2.10;;;;;;;11.14;93.67;98966.56;10657066;27;20412;-72
2022/09/15 08:36:04;;;;;;;3.15;2.10;;;;;;;11.23;93.83;98979.47;10656658;27;20062;-72
2022/09/15 08:41:17;;;;;;;3.83;2.30;;;;;;;11.23;93.25;98971.22;10657430;27;20492;-72
2022/09/15 08:46:24;;;;;;;4.22;2.30;;;;;;;11.25;93.03;98969.75;10622429;27;20547;-72
2022/09/15 08:51:37;;;;;;;3.58;2.03;;;;;;;11.29;92.88;98965.25;10656441;27;20047;-72
2022/09/15 08:56:40;;;;;;;3.35;2.28;;;;;;;11.35;92.34;98974.91;10638346;27;20051;-72
2022/09/15 09:01:52;;;;;;;4.32;2.75;;;;;;;11.37;92.57;98975.41;10632006;27;20040;-72
2022/09/15 09:06:57;;;;;;;5.40;2.70;;;;;;;11.42;92.26;98968.91;10637034;27;20051;-72
2022/09/15 09:12:05;;;;;;;2.83;2.10;;;;;;;11.42;92.29;98957.94;10638336;27;20513;-72
2022/09/15 09:17:19;;;;;;;4.15;2.80;;;;;;;11.44;92.28;98970.19;10611099;28;20054;-72
2022/09/15 09:22:23;;;;;;;4.47;2.55;;;;;;;11.43;91.77;98956.78;10612500;28;20047;-72
2022/09/15 09:27:29;;;;;;;4.88;2.90;;;;;;;11.43;92.03;98951.28;10612411;28;20043;-72
2022/09/15 09:32:43;;;;;;;6.07;2.53;;;;;;;11.50;91.05;98951.63;10652232;27;20570;-72
2022/09/15 09:37:46;;;;;;;3.55;2.60;;;;;;;11.56;91.25;98944.78;10631486;27;20058;-72
2022/09/15 09:42:48;;;;;;;4.35;2.70;;;;;;;11.58;91.08;98936.22;10653275;27;20039;-72
2022/09/15 09:47:51;;;;;;;4.63;2.38;;;;;;;11.57;91.25;98929.94;10653937;27;20425;-72
2022/09/15 09:52:54;;;;;;;3.88;2.47;;;;;;;11.61;91.02;98936.38;10650114;27;20049;-71
2022/09/15 09:58:12;;;;;;;3.28;2.28;;;;;;;11.63;90.44;98936.88;10613390;27;20516;-71
2022/09/15 10:03:15;;;;;;;4.00;2.38;;;;;;;11.66;90.30;98938.16;10649342;27;20047;-70
2022/09/15 10:08:19;;;;;;;4.05;2.05;;;;;;;11.65;90.84;98940.09;10658828;27;20046;-71
2022/09/15 10:13:22;;;;;;;4.63;2.60;;;;;;;11.67;90.43;98940.56;10634788;27;20042;-70
2022/09/15 10:18:26;;;;;;;3.65;2.50;;;;;;;11.73;90.37;98933.72;10631003;27;20402;-70
2022/09/15 10:23:30;;;;;;;3.42;2.50;;;;;;;11.76;90.43;98946.00;10650231;27;20673;-71
2022/09/15 10:28:32;;;;;;;4.25;2.65;;;;;;;11.72;90.72;98945.88;10657324;27;20046;-70
2022/09/15 10:33:40;;;;;;;3.95;2.65;;;;;;;11.76;90.64;98948.75;10663734;27;20042;-71
2022/09/15 10:38:58;;;;;;;3.47;2.35;;;;;;;11.77;90.61;98951.16;10659757;27;20043;-71
2022/09/15 10:44:07;;;;;;;6.10;2.47;;;;;;;11.76;90.71;98955.06;10658254;27;20035;-72
2022/09/15 10:49:35;;;;;;;4.65;3.20;;;;;;;11.76;90.68;98963.28;10660803;27;20046;-72
2022/09/15 10:54:49;;;;;;;3.38;2.42;;;;;;;11.77;89.88;98958.59;10655579;27;20077;-72
2022/09/15 11:00:10;;;;;;;2.28;1.88;;;;;;;11.75;90.41;98953.44;10657886;27;20047;-72
2022/09/15 11:05:40;;;;;;;2.97;2.28;;;;;;;11.79;90.74;98948.13;10635989;27;20562;-71
2022/09/15 11:11:08;;;;;;;3.70;2.20;;;;;;;11.80;90.58;98944.22;10658197;27;20091;-71
2022/09/15 11:16:27;;;;;;;;;;;;;;;11.87;90.68;98936.28;10654726;27;20046;-71
2022/09/15 11:21:34;;;;;;;2.97;2.25;;;;;;;11.90;90.53;98932.06;10661184;27;20336;-72
2022/09/15 11:26:41;;;;;;;4.88;2.30;;;;;;;11.90;90.22;98934.81;10641286;27;20460;-71
2022/09/15 11:31:45;;;;;;;1.70;1.10;;;;;;;11.89;90.72;98930.47;10660002;27;20457;-71
2022/09/15 11:37:00;;;;;;;6.57;2.40;;;;;;;11.87;90.23;98925.31;10640901;27;20054;-71
2022/09/15 11:42:13;;;;;;;3.92;1.85;;;;;;;11.91;90.64;98925.44;10637711;27;20038;-72
2022/09/15 11:47:33;;;;;;;3.85;2.05;;;;;;;11.95;90.51;98918.13;10640650;27;20043;-72
2022/09/15 11:52:54;;;;;;;3.97;2.15;;;;;;;11.94;90.15;98919.28;10640470;27;20083;-72
2022/09/15 11:58:22;;;;;;;4.10;2.25;;;;;;;11.99;90.20;98902.59;10655942;27;20047;-70
2022/09/15 12:03:33;;;;;;;2.75;2.00;;;;;;;12.07;90.39;98908.03;10641420;27;20046;-72
2022/09/15 12:08:39;;;;;;;5.07;2.65;;;;;;;12.12;90.26;98907.03;10640061;27;20047;-71
2022/09/15 12:13:41;;;;;;;5.55;2.45;;;;;;;12.20;90.12;98906.19;10657592;27;20043;-71
2022/09/15 12:18:53;;;;;;;3.38;2.22;;;;;;;12.30;89.47;98904.97;10632828;27;20054;-71
2022/09/15 12:24:15;;;;;;;4.20;2.30;;;;;;;12.34;89.20;98898.47;10651802;27;20042;-71
2022/09/15 12:29:20;;;;;;;6.85;3.10;;;;;;;12.36;89.00;98912.69;10657653;27;20513;-72
2022/09/15 12:34:29;;;;;;;3.13;2.33;;;;;;;12.34;89.38;98883.91;10642217;27;20398;-72
2022/09/15 12:39:45;;;;;;;3.45;1.88;;;;;;;12.39;88.68;98894.72;10614403;28;20039;-72
2022/09/15 12:44:47;;;;;;;3.35;2.25;;;;;;;12.46;88.10;98899.66;10655826;27;20424;-72
2022/09/15 12:49:51;;;;;;;2.30;1.98;;;;;;;12.38;88.02;98888.41;10621691;27;20047;-72
2022/09/15 12:54:58;;;;;;;3.72;2.00;;;;;;;12.37;88.52;98892.31;10655998;27;20034;-74
2022/09/15 13:00:19;;;;;;;4.37;2.40;;;;;;;12.40;88.48;98884.50;10635018;27;20035;-72
2022/09/15 13:05:40;;;;;;;3.15;1.60;;;;;;;12.41;88.74;98881.44;10653699;27;20042;-72
2022/09/15 13:10:58;;;;;;;3.05;1.88;;;;;;;12.43;88.07;98870.09;10655515;27;20047;-72
2022/09/15 13:16:01;;;;;;;3.40;2.10;;;;;;;12.52;88.17;98881.84;10649294;27;20047;-73
2022/09/15 13:21:06;;;;;;;1.73;1.55;;;;;;;12.53;88.67;98872.44;10638224;27;20074;-73
2022/09/15 13:26:11;;;;;;;3.22;1.90;;;;;;;12.54;88.59;98874.03;10620900;27;20548;-73
2022/09/15 13:31:33;;;;;;;3.38;2.20;;;;;;;12.49;89.10;98874.22;10617399;27;20038;-71
2022/09/15 13:36:41;;;;;;;4.22;1.65;;;;;;;12.53;88.75;98855.94;10609299;27;20412;-72
2022/09/15 13:41:43;;;;;;;1.88;1.30;;;;;;;12.58;88.90;98859.25;10652733;27;20046;-71
2022/09/15 13:47:04;;;;;;;4.68;1.70;;;;;;;12.60;89.08;98853.44;10653664;27;20047;-70
2022/09/15 13:52:19;;;;;;;2.13;1.48;;;;;;;12.63;89.30;98850.00;10652975;27;20046;-71
2022/09/15 13:57:21;;;;;;;4.60;2.33;;;;;;;12.70;88.76;98857.72;10645867;27;20043;-70
2022/09/15 14:02:24;;;;;;;3.97;2.30;;;;;;;12.66;88.48;98854.81;10652540;27;20043;-71
2022/09/15 14:07:26;;;;;;;3.45;1.70;;;;;;;12.65;88.07;98854.00;10657641;27;20049;-72
2022/09/15 14:12:28;;;;;;;5.15;2.40;;;;;;;12.69;88.41;98851.41;10655107;27;20058;-72
2022/09/15 14:17:31;;;;;;;3.97;2.47;;;;;;;12.70;87.88;98850.25;10651998;27;20042;-71
2022/09/15 14:22:34;;;;;;;3.30;2.30;;;;;;;12.67;88.28;98848.19;10634662;28;20408;-72
2022/09/15 14:27:42;;;;;;;4.65;2.30;;;;;;;12.71;88.63;98851.88;10642297;27;20039;-71
2022/09/15 14:32:45;;;;;;;2.60;1.95;;;;;;;12.67;87.99;98840.75;10640457;27;20046;-71
2022/09/15 14:37:49;;;;;;;2.58;1.33;;;;;;;12.67;88.38;98846.25;10652753;28;20039;-71
2022/09/15 14:42:51;;;;;;;3.75;2.50;;;;;;;12.69;88.45;98843.16;10635095;28;20027;-71
2022/09/15 14:47:59;;;;;;;3.38;2.05;;;;;;;12.65;88.60;98842.19;10634559;28;20043;-70
2022/09/15 14:53:05;;;;;;;3.10;2.25;;;;;;;12.63;88.71;98839.78;10648452;28;20040;-71
2022/09/15 14:58:38;;;;;;;3.97;2.70;;;;;;;12.58;88.73;98833.69;10650907;28;20055;-71
2022/09/15 15:04:04;;;;;;;2.47;2.28;;;;;;;12.52;89.77;98824.88;10622450;27;20054;-72
2022/09/15 15:09:33;;;;;;;2.95;2.58;;;;;;;12.43;90.25;98826.88;10642713;27;20042;-71
2022/09/15 15:14:41;;;;;;;4.80;2.20;;;;;;;12.29;90.87;98821.66;10634006;27;20042;-71
2022/09/15 15:19:45;;;;;;;4.15;2.33;;;;;;;12.19;91.87;98818.53;10658502;27;20066;-71
2022/09/15 15:24:50;;;;;;;3.67;2.08;;;;;;;12.08;92.60;98824.41;10638670;27;20051;-72
2022/09/15 15:29:52;;;;;;;4.78;2.65;;;;;;;12.02;93.00;98817.53;10647498;27;20035;-71
2022/09/15 15:34:59;;;;;;;7.40;3.20;;;;;;;11.99;93.60;98814.63;10640822;27;20035;-72
2022/09/15 15:40:05;;;;;;;6.40;3.10;;;;;;;11.94;94.62;98812.06;10649661;27;20043;-74
2022/09/15 15:45:08;;;;;;;4.35;2.60;;;;;;;11.89;95.21;98818.56;10653760;27;20055;-74
2022/09/15 15:50:13;;;;;;;5.22;2.33;;;;;;;11.81;95.55;98813.16;10655851;27;20413;-73
2022/09/15 15:55:20;;;;;;;6.25;2.60;;;;;;;11.76;96.05;98809.41;10656517;27;20059;-73
2022/09/15 16:00:39;;;;;;;;;;;;;;;11.73;96.88;98801.03;10657140;27;20043;-72
2022/09/15 16:05:44;;;;;;;3.75;1.85;;;;;;;11.67;97.22;98813.38;10638164;27;19919;-74
2022/09/15 16:10:47;;;;;;;1.98;1.55;;;;;;;11.61;97.88;98809.19;10637929;27;20035;-73
2022/09/15 16:15:52;;;;;;;3.30;2.38;;;;;;;11.58;98.43;98812.59;10636026;27;20035;-73
2022/09/15 16:20:54;;;;;;;4.53;2.42;;;;;;;11.52;98.72;98798.28;10654524;27;20516;-74
2022/09/15 16:25:59;;;;;;;4.88;2.20;;;;;;;11.48;99.69;98783.59;10654367;27;20050;-73
2022/09/15 16:31:01;;;;;;;2.38;1.40;;;;;;;11.49;99.77;98765.97;10636501;27;20031;-73
2022/09/15 16:36:07;;;;;;;6.88;3.30;;;;;;;11.43;100.00;98775.53;10643360;27;20413;-73
2022/09/15 16:41:13;;;;;;;5.28;3.20;;;;;;;11.39;100.00;98767.16;10639175;27;20047;-74
2022/09/15 16:46:16;;;;;;;5.53;2.90;;;;;;;11.42;100.00;98784.91;10650413;27;20035;-73
2022/09/15 16:51:22;;;;;;;3.75;2.22;;;;;;;11.43;100.00;98764.53;10656338;27;20055;-74
2022/09/15 16:56:24;;;;;;;3.17;2.17;;;;;;;11.44;100.00;98760.66;10644922;27;20043;-74
2022/09/15 17:01:27;;;;;;;4.22;2.50;;;;;;;11.48;100.00;98758.88;10652594;27;20050;-73
2022/09/15 17:06:29;;;;;;;3.72;2.75;;;;;;;11.52;100.00;98762.56;10648959;27;20044;-73
2022/09/15 17:11:32;;;;;;;5.30;4.07;;;;;;;11.50;100.00;98751.09;10653630;27;20031;-73
2022/09/15 17:16:34;;;;;;;5.53;3.15;;;;;;;11.47;100.00;98749.03;10653892;27;20050;-73
2022/09/15 17:21:36;;;;;;;6.43;4.03;;;;;;;11.43;100.00;98764.53;10649014;27;20043;-73
2022/09/15 17:26:38;;;;;;;6.57;3.88;;;;;;;11.40;100.00;98756.97;10654664;27;20394;-73
2022/09/15 17:31:41;;;;;;;5.47;3.33;;;;;;;11.37;100.00;98746.66;10644465;27;20057;-73
2022/09/15 17:36:44;;;;;;;4.47;3.60;;;;;;;11.37;100.00;98760.38;10634135;27;20046;-74
2022/09/15 17:41:46;;;;;;;5.97;3.80;;;;;;;11.37;100.00;98757.63;10650314;27;20035;-72
2022/09/15 17:46:48;;;;;;;5.22;3.30;;;;;;;11.37;100.00;98743.91;10655850;27;20063;-73
2022/09/15 17:51:50;;;;;;;5.07;2.47;;;;;;;11.38;100.00;98737.28;10651276;27;20596;-73
2022/09/15 17:56:53;;;;;;;4.78;2.70;;;;;;;11.40;100.00;98737.75;10652852;27;20555;-73
2022/09/15 18:01:55;;;;;;;4.90;3.10;;;;;;;11.43;100.00;98742.56;10637781;27;20039;-73
2022/09/15 18:06:57;;;;;;;6.80;3.38;;;;;;;11.39;100.00;98731.44;10649267;27;20035;-73
2022/09/15 18:11:59;;;;;;;6.15;3.40;;;;;;;11.40;100.00;98721.28;10624621;27;20488;-73
2022/09/15 18:17:02;;;;;;;5.97;3.83;;;;;;;11.36;100.00;98721.13;10631340;27;20065;-72
2022/09/15 18:22:05;;;;;;;7.40;3.50;;;;;;;11.34;100.00;98715.19;10652700;27;20389;-72
2022/09/15 18:27:07;;;;;;;4.95;3.03;;;;;;;11.36;100.00;98710.16;10632909;27;20039;-72
2022/09/15 18:32:09;;;;;;;5.80;3.83;;;;;;;11.36;100.00;98701.91;10654890;27;20401;-72
2022/09/15 18:37:12;;;;;;;3.00;1.42;;;;;;;11.36;100.00;98701.91;10612511;27;20523;-72
2022/09/15 18:42:14;;;;;;;6.85;3.50;;;;;;;11.38;100.00;98696.09;10652523;27;20042;-72
2022/09/15 18:47:16;;;;;;;5.70;2.75;;;;;;;11.43;100.00;98698.63;10652451;27;20047;-72
2022/09/15 18:52:18;;;;;;;4.05;2.65;;;;;;;11.53;100.00;98694.69;10670445;27;20047;-73
2022/09/15 18:57:21;;;;;;;5.80;3.17;;;;;;;11.63;100.00;98686.88;10659848;27;20051;-71
2022/09/15 19:02:23;;;;;;;4.50;2.47;;;;;;;11.70;100.00;98676.13;10659109;27;20650;-72
2022/09/15 19:07:25;;;;;;;6.80;3.33;;;;;;;11.69;100.00;98670.97;10658482;27;20051;-71
2022/09/15 19:12:28;;;;;;;3.20;2.38;;;;;;;11.62;100.00;98685.22;10653390;27;20047;-72
2022/09/15 19:17:31;;;;;;;3.92;2.40;;;;;;;11.62;100.00;98687.16;10657398;27;20051;-73
2022/09/15 19:22:34;;;;;;;3.65;2.08;;;;;;;11.67;100.00;98684.25;10656731;27;20054;-72
2022/09/15 19:27:38;;;;;;;3.33;2.05;;;;;;;11.65;100.00;98679.09;10655618;27;20553;-73
2022/09/15 19:32:41;;;;;;;3.60;2.40;;;;;;;11.64;100.00;98685.72;10656842;27;20047;-73
2022/09/15 19:37:48;;;;;;;4.63;2.35;;;;;;;11.62;100.00;98681.69;10652659;27;20058;-72
2022/09/15 19:42:50;;;;;;;2.67;1.90;;;;;;;11.57;100.00;98666.22;10653456;27;20055;-73
2022/09/15 19:47:53;;;;;;;3.35;1.70;;;;;;;11.57;100.00;98665.41;10653962;27;20035;-72
2022/09/15 19:52:55;;;;;;;3.67;2.42;;;;;;;11.54;100.00;98661.41;10649498;27;20054;-72
2022/09/15 19:57:57;;;;;;;5.28;2.10;;;;;;;11.49;100.00;98650.63;10657185;27;20038;-73
2022/09/15 20:02:59;;;;;;;3.70;2.00;;;;;;;11.47;100.00;98650.97;10634231;27;20489;-72
2022/09/15 20:08:02;;;;;;;4.38;2.03;;;;;;;11.43;100.00;98641.75;10654971;27;20038;-72
2022/09/15 20:13:10;;;;;;;4.03;2.38;;;;;;;11.41;100.00;98648.72;10652334;27;20039;-73
2022/09/15 20:18:13;;;;;;;4.32;2.47;;;;;;;11.41;100.00;98646.78;10651460;27;20094;-74
2022/09/15 20:23:20;;;;;;;6.15;2.38;;;;;;;11.42;100.00;98636.59;10643071;27;20045;-73
2022/09/15 20:28:22;;;;;;;4.35;2.20;;;;;;;11.43;100.00;98627.22;10655319;27;20053;-73
2022/09/15 20:33:25;;;;;;;3.42;1.92;;;;;;;11.42;100.00;98620.13;10637321;27;20035;-72
2022/09/15 20:38:27;;;;;;;3.88;1.73;;;;;;;11.40;100.00;98612.22;10655847;27;20040;-73
2022/09/15 20:43:29;;;;;;;3.22;1.63;;;;;;;11.39;100.00;98609.81;10627119;27;20050;-72
2022/09/15 20:48:33;;;;;;;3.42;2.15;;;;;;;11.41;100.00;98591.06;10658646;27;20034;-73
2022/09/15 20:53:39;;;;;;;2.55;1.95;;;;;;;11.43;100.00;98605.25;10653481;27;20042;-73
2022/09/15 20:58:41;;;;;;;3.08;2.05;;;;;;;11.45;100.00;98595.56;10653950;27;20137;-73
2022/09/15 21:03:44;;;;;;;4.63;2.20;;;;;;;11.44;100.00;98593.94;10653121;27;20062;-72
2022/09/15 21:08:47;;;;;;;2.50;1.77;;;;;;;11.47;100.00;98589.72;10654037;27;20533;-73
2022/09/15 21:13:49;;;;;;;3.08;1.50;;;;;;;11.45;100.00;98581.00;10655411;27;20523;-73
2022/09/15 21:18:54;;;;;;;2.58;2.05;;;;;;;11.45;100.00;98591.97;10650608;27;20038;-73
2022/09/15 21:24:02;;;;;;;3.95;1.80;;;;;;;11.44;100.00;98568.41;10655119;27;20552;-73
2022/09/15 21:29:04;;;;;;;3.67;2.00;;;;;;;11.41;100.00;98580.06;10653670;27;20497;-73
2022/09/15 21:34:06;;;;;;;4.15;2.10;;;;;;;11.41;100.00;98577.31;10644956;27;20449;-73
2022/09/15 21:39:09;;;;;;;3.72;1.90;;;;;;;11.40;100.00;98572.97;10652992;27;20412;-73
2022/09/15 21:44:11;;;;;;;3.80;2.30;;;;;;;11.39;100.00;98571.38;10655577;27;20043;-72
2022/09/15 21:49:16;;;;;;;3.28;1.90;;;;;;;11.39;100.00;98571.38;10652000;27;20031;-72
2022/09/15 21:54:18;;;;;;;2.95;1.80;;;;;;;11.38;100.00;98567.03;10642681;27;20046;-72
2022/09/15 21:59:23;;;;;;;4.10;1.90;;;;;;;11.37;100.00;98563.47;10654279;27;20061;-72
2022/09/15 22:04:26;;;;;;;4.50;2.10;;;;;;;11.41;100.00;98563.59;10653055;27;20101;-72
2022/09/15 22:09:28;;;;;;;2.97;1.83;;;;;;;11.42;100.00;98559.72;10652828;27;20053;-72
2022/09/15 22:14:30;;;;;;;5.50;2.08;;;;;;;11.41;100.00;98541.63;10652214;27;20043;-72
2022/09/15 22:19:33;;;;;;;4.53;2.30;;;;;;;11.36;100.00;98561.88;10653159;27;20087;-72
2022/09/15 22:24:35;;;;;;;3.28;1.70;;;;;;;11.34;100.00;98557.84;10652347;27;20039;-72
2022/09/15 22:29:37;;;;;;;2.17;1.85;;;;;;;11.32;100.00;98549.97;10652994;27;20054;-72
2022/09/15 22:35:06;;;;;;;4.03;2.00;;;;;;;11.35;100.00;98556.72;10663816;27;20055;-72
2022/09/15 22:40:09;;;;;;;2.38;1.73;;;;;;;11.34;100.00;98544.13;10658065;27;20046;-72
2022/09/15 22:45:11;;;;;;;3.92;1.92;;;;;;;11.35;100.00;98535.56;10658832;27;20039;-72
2022/09/15 22:50:13;;;;;;;3.28;2.30;;;;;;;11.35;100.00;98545.72;10658945;27;20067;-72
2022/09/15 22:55:15;;;;;;;4.25;1.77;;;;;;;11.35;100.00;98538.31;10667106;27;20050;-72
2022/09/15 23:00:19;;;;;;;4.10;1.67;;;;;;;11.35;100.00;98543.00;10658939;27;20047;-72
2022/09/15 23:05:21;;;;;;;4.38;1.83;;;;;;;11.37;100.00;98535.22;10652735;27;20035;-73
2022/09/15 23:10:25;;;;;;;2.33;1.95;;;;;;;11.37;100.00;98529.72;10660403;27;20050;-72
2022/09/15 23:15:27;;;;;;;5.20;2.20;;;;;;;11.36;100.00;98536.34;10658373;27;20418;-73
2022/09/15 23:20:29;;;;;;;2.88;1.80;;;;;;;11.36;100.00;98528.13;10664158;27;20035;-72
2022/09/15 23:25:32;;;;;;;4.13;2.03;;;;;;;11.36;100.00;98522.63;10660021;27;20057;-72
2022/09/15 23:30:34;;;;;;;2.83;1.90;;;;;;;11.36;100.00;98522.63;10636636;27;20039;-72
2022/09/15 23:35:36;;;;;;;2.22;1.95;;;;;;;11.35;100.00;98519.06;10643499;27;20046;-73
2022/09/15 23:41:23;;;;;;;4.50;2.53;;;;;;;11.36;100.00;98517.13;10657595;27;20031;-73